sensor_id;sensor_type;location;lat;lon;timestamp;P1;durP1;ratioP1;P2;durP2;ratioP2
15096;SDS011;7649;52.084;7.478;2023-03-24T00:01:24;6.23;;;2.80;;
15096;SDS011;7649;52.084;7.478;2023-03-24T00:03:54;5.27;;;3.40;;
15096;SDS011;7649;52.084;7.478;2023-03-24T00:06:24;4.53;;;3.23;;
15096;SDS011;7649;52.084;7.478;2023-03-24T00:08:53;3.87;;;3.23;;
15096;SDS011;7649;52.084;7.478;2023-03-24T00:11:21;4.20;;;3.80;;
15096;SDS011;7649;52.084;7.478;2023-03-24T00:13:50;4.97;;;2.73;;
15096;SDS011;7649;52.084;7.478;2023-03-24T00:16:19;5.67;;;3.00;;
15096;SDS011;7649;52.084;7.478;2023-03-24T00:18:47;4.60;;;3.03;;
15096;SDS011;7649;52.084;7.478;2023-03-24T00:21:20;5.30;;;3.57;;
15096;SDS011;7649;52.084;7.478;2023-03-24T00:23:50;5.07;;;2.97;;
15096;SDS011;7649;52.084;7.478;2023-03-24T00:26:20;5.83;;;3.47;;
15096;SDS011;7649;52.084;7.478;2023-03-24T00:28:50;5.90;;;3.37;;
15096;SDS011;7649;52.084;7.478;2023-03-24T00:31:19;6.83;;;3.30;;
15096;SDS011;7649;52.084;7.478;2023-03-24T00:33:47;4.47;;;3.00;;
15096;SDS011;7649;52.084;7.478;2023-03-24T00:36:17;5.70;;;3.30;;
15096;SDS011;7649;52.084;7.478;2023-03-24T00:38:47;6.30;;;3.60;;
15096;SDS011;7649;52.084;7.478;2023-03-24T00:41:16;4.30;;;3.20;;
15096;SDS011;7649;52.084;7.478;2023-03-24T00:43:45;3.87;;;3.33;;
15096;SDS011;7649;52.084;7.478;2023-03-24T00:46:14;4.40;;;3.40;;
15096;SDS011;7649;52.084;7.478;2023-03-24T00:48:53;5.00;;;3.63;;
15096;SDS011;7649;52.084;7.478;2023-03-24T00:51:27;5.70;;;3.40;;
15096;SDS011;7649;52.084;7.478;2023-03-24T00:53:57;6.70;;;3.27;;
15096;SDS011;7649;52.084;7.478;2023-03-24T00:56:27;5.20;;;3.27;;
15096;SDS011;7649;52.084;7.478;2023-03-24T00:58:57;4.40;;;3.37;;
15096;SDS011;7649;52.084;7.478;2023-03-24T01:01:28;4.00;;;3.17;;
15096;SDS011;7649;52.084;7.478;2023-03-24T01:03:58;3.67;;;3.33;;
15096;SDS011;7649;52.084;7.478;2023-03-24T01:06:27;3.77;;;3.03;;
15096;SDS011;7649;52.084;7.478;2023-03-24T01:08:55;3.50;;;3.10;;
15096;SDS011;7649;52.084;7.478;2023-03-24T01:11:25;4.13;;;2.77;;
15096;SDS011;7649;52.084;7.478;2023-03-24T01:13:54;3.73;;;3.23;;
15096;SDS011;7649;52.084;7.478;2023-03-24T01:16:24;3.73;;;3.20;;
15096;SDS011;7649;52.084;7.478;2023-03-24T01:18:55;5.90;;;3.40;;
15096;SDS011;7649;52.084;7.478;2023-03-24T01:21:24;4.17;;;3.20;;
15096;SDS011;7649;52.084;7.478;2023-03-24T01:23:53;3.13;;;2.83;;
15096;SDS011;7649;52.084;7.478;2023-03-24T01:26:21;4.23;;;2.93;;
15096;SDS011;7649;52.084;7.478;2023-03-24T01:28:51;6.33;;;2.70;;
15096;SDS011;7649;52.084;7.478;2023-03-24T01:31:19;3.40;;;2.90;;
15096;SDS011;7649;52.084;7.478;2023-03-24T01:33:48;4.73;;;3.17;;
15096;SDS011;7649;52.084;7.478;2023-03-24T01:36:16;4.13;;;3.00;;
15096;SDS011;7649;52.084;7.478;2023-03-24T01:38:44;4.30;;;3.10;;
15096;SDS011;7649;52.084;7.478;2023-03-24T01:41:13;3.83;;;3.10;;
15096;SDS011;7649;52.084;7.478;2023-03-24T01:43:43;3.47;;;2.80;;
15096;SDS011;7649;52.084;7.478;2023-03-24T01:46:14;3.37;;;3.00;;
15096;SDS011;7649;52.084;7.478;2023-03-24T01:48:44;2.50;;;2.30;;
15096;SDS011;7649;52.084;7.478;2023-03-24T01:51:15;2.77;;;2.57;;
15096;SDS011;7649;52.084;7.478;2023-03-24T01:53:46;4.10;;;2.80;;
15096;SDS011;7649;52.084;7.478;2023-03-24T01:56:17;2.63;;;2.40;;
15096;SDS011;7649;52.084;7.478;2023-03-24T01:58:47;4.07;;;2.87;;
15096;SDS011;7649;52.084;7.478;2023-03-24T02:01:18;3.00;;;2.70;;
15096;SDS011;7649;52.084;7.478;2023-03-24T02:03:48;3.10;;;2.80;;
15096;SDS011;7649;52.084;7.478;2023-03-24T02:06:18;4.23;;;2.50;;
15096;SDS011;7649;52.084;7.478;2023-03-24T02:08:47;4.40;;;3.10;;
15096;SDS011;7649;52.084;7.478;2023-03-24T02:11:17;3.63;;;2.93;;
15096;SDS011;7649;52.084;7.478;2023-03-24T02:13:45;3.37;;;2.83;;
15096;SDS011;7649;52.084;7.478;2023-03-24T02:16:28;3.17;;;2.80;;
15096;SDS011;7649;52.084;7.478;2023-03-24T02:19:03;3.47;;;2.70;;
15096;SDS011;7649;52.084;7.478;2023-03-24T02:21:58;3.17;;;2.93;;
15096;SDS011;7649;52.084;7.478;2023-03-24T02:27:27;3.60;;;2.80;;
15096;SDS011;7649;52.084;7.478;2023-03-24T02:32:58;3.27;;;2.90;;
15096;SDS011;7649;52.084;7.478;2023-03-24T02:35:53;3.80;;;2.80;;
15096;SDS011;7649;52.084;7.478;2023-03-24T02:38:47;3.60;;;2.70;;
15096;SDS011;7649;52.084;7.478;2023-03-24T02:41:21;3.17;;;2.80;;
15096;SDS011;7649;52.084;7.478;2023-03-24T02:43:56;4.90;;;3.20;;
15096;SDS011;7649;52.084;7.478;2023-03-24T02:46:30;3.03;;;2.83;;
15096;SDS011;7649;52.084;7.478;2023-03-24T02:49:08;4.17;;;2.97;;
15096;SDS011;7649;52.084;7.478;2023-03-24T02:51:38;2.93;;;2.73;;
15096;SDS011;7649;52.084;7.478;2023-03-24T02:54:10;2.87;;;2.67;;
15096;SDS011;7649;52.084;7.478;2023-03-24T02:56:43;3.30;;;3.00;;
15096;SDS011;7649;52.084;7.478;2023-03-24T02:59:15;4.07;;;3.20;;
15096;SDS011;7649;52.084;7.478;2023-03-24T03:01:46;4.00;;;2.73;;
15096;SDS011;7649;52.084;7.478;2023-03-24T03:04:20;3.50;;;3.20;;
15096;SDS011;7649;52.084;7.478;2023-03-24T03:06:55;6.00;;;3.17;;
15096;SDS011;7649;52.084;7.478;2023-03-24T03:09:25;3.23;;;2.93;;
15096;SDS011;7649;52.084;7.478;2023-03-24T03:11:56;3.27;;;2.93;;
15096;SDS011;7649;52.084;7.478;2023-03-24T03:14:30;3.70;;;3.40;;
15096;SDS011;7649;52.084;7.478;2023-03-24T03:17:00;4.20;;;3.40;;
15096;SDS011;7649;52.084;7.478;2023-03-24T03:19:30;4.37;;;3.40;;
15096;SDS011;7649;52.084;7.478;2023-03-24T03:22:00;3.93;;;3.30;;
15096;SDS011;7649;52.084;7.478;2023-03-24T03:24:30;3.33;;;3.03;;
15096;SDS011;7649;52.084;7.478;2023-03-24T03:27:00;3.80;;;3.47;;
15096;SDS011;7649;52.084;7.478;2023-03-24T03:29:33;3.87;;;3.53;;
15096;SDS011;7649;52.084;7.478;2023-03-24T03:32:03;4.33;;;3.70;;
15096;SDS011;7649;52.084;7.478;2023-03-24T03:34:36;4.40;;;4.00;;
15096;SDS011;7649;52.084;7.478;2023-03-24T03:37:08;4.07;;;3.70;;
15096;SDS011;7649;52.084;7.478;2023-03-24T03:39:39;4.33;;;3.90;;
15096;SDS011;7649;52.084;7.478;2023-03-24T03:42:09;5.50;;;3.90;;
15096;SDS011;7649;52.084;7.478;2023-03-24T03:44:38;4.43;;;4.03;;
15096;SDS011;7649;52.084;7.478;2023-03-24T03:47:06;4.50;;;4.10;;
15096;SDS011;7649;52.084;7.478;2023-03-24T03:49:35;4.70;;;4.30;;
15096;SDS011;7649;52.084;7.478;2023-03-24T03:52:03;5.53;;;4.17;;
15096;SDS011;7649;52.084;7.478;2023-03-24T03:54:32;4.70;;;4.30;;
15096;SDS011;7649;52.084;7.478;2023-03-24T03:57:01;5.80;;;4.50;;
15096;SDS011;7649;52.084;7.478;2023-03-24T03:59:31;5.87;;;4.10;;
15096;SDS011;7649;52.084;7.478;2023-03-24T04:02:01;4.73;;;4.33;;
15096;SDS011;7649;52.084;7.478;2023-03-24T04:04:39;5.30;;;4.90;;
15096;SDS011;7649;52.084;7.478;2023-03-24T04:07:21;5.77;;;4.83;;
15096;SDS011;7649;52.084;7.478;2023-03-24T04:09:56;5.13;;;4.73;;
15096;SDS011;7649;52.084;7.478;2023-03-24T04:12:33;5.43;;;5.03;;
15096;SDS011;7649;52.084;7.478;2023-03-24T04:17:54;5.50;;;5.00;;
15096;SDS011;7649;52.084;7.478;2023-03-24T04:20:28;5.07;;;4.63;;
15096;SDS011;7649;52.084;7.478;2023-03-24T04:23:03;5.47;;;4.83;;
15096;SDS011;7649;52.084;7.478;2023-03-24T04:25:37;5.43;;;4.90;;
15096;SDS011;7649;52.084;7.478;2023-03-24T04:28:13;5.17;;;4.77;;
15096;SDS011;7649;52.084;7.478;2023-03-24T04:30:43;5.00;;;4.57;;
15096;SDS011;7649;52.084;7.478;2023-03-24T04:33:16;4.57;;;4.17;;
15096;SDS011;7649;52.084;7.478;2023-03-24T04:35:48;5.23;;;4.60;;
15096;SDS011;7649;52.084;7.478;2023-03-24T04:38:20;4.77;;;4.30;;
15096;SDS011;7649;52.084;7.478;2023-03-24T04:40:50;5.27;;;4.27;;
15096;SDS011;7649;52.084;7.478;2023-03-24T04:43:21;4.10;;;3.70;;
15096;SDS011;7649;52.084;7.478;2023-03-24T04:45:51;4.80;;;3.83;;
15096;SDS011;7649;52.084;7.478;2023-03-24T04:48:25;4.13;;;3.73;;
15096;SDS011;7649;52.084;7.478;2023-03-24T04:50:54;3.70;;;3.40;;
15096;SDS011;7649;52.084;7.478;2023-03-24T04:53:23;3.30;;;2.97;;
15096;SDS011;7649;52.084;7.478;2023-03-24T04:55:57;3.30;;;3.00;;
15096;SDS011;7649;52.084;7.478;2023-03-24T04:58:28;3.80;;;3.00;;
15096;SDS011;7649;52.084;7.478;2023-03-24T05:00:56;4.40;;;2.90;;
15096;SDS011;7649;52.084;7.478;2023-03-24T05:03:26;4.00;;;2.70;;
15096;SDS011;7649;52.084;7.478;2023-03-24T05:05:54;2.70;;;2.50;;
15096;SDS011;7649;52.084;7.478;2023-03-24T05:08:24;2.33;;;2.13;;
15096;SDS011;7649;52.084;7.478;2023-03-24T05:10:52;1.90;;;1.67;;
15096;SDS011;7649;52.084;7.478;2023-03-24T05:13:21;1.80;;;1.53;;
15096;SDS011;7649;52.084;7.478;2023-03-24T05:15:51;3.13;;;1.30;;
15096;SDS011;7649;52.084;7.478;2023-03-24T05:18:21;1.80;;;1.00;;
15096;SDS011;7649;52.084;7.478;2023-03-24T05:20:51;1.53;;;1.37;;
15096;SDS011;7649;52.084;7.478;2023-03-24T05:23:19;1.27;;;1.17;;
15096;SDS011;7649;52.084;7.478;2023-03-24T05:25:48;2.10;;;1.20;;
15096;SDS011;7649;52.084;7.478;2023-03-24T05:28:17;2.40;;;1.30;;
15096;SDS011;7649;52.084;7.478;2023-03-24T05:30:45;3.20;;;1.50;;
15096;SDS011;7649;52.084;7.478;2023-03-24T05:33:14;1.17;;;1.03;;
15096;SDS011;7649;52.084;7.478;2023-03-24T05:35:42;2.70;;;1.23;;
15096;SDS011;7649;52.084;7.478;2023-03-24T05:38:12;3.43;;;1.40;;
15096;SDS011;7649;52.084;7.478;2023-03-24T05:40:40;3.03;;;1.37;;
15096;SDS011;7649;52.084;7.478;2023-03-24T05:43:09;2.70;;;1.37;;
15096;SDS011;7649;52.084;7.478;2023-03-24T05:45:38;1.77;;;1.37;;
15096;SDS011;7649;52.084;7.478;2023-03-24T05:48:06;3.03;;;1.40;;
15096;SDS011;7649;52.084;7.478;2023-03-24T05:50:34;1.73;;;1.60;;
15096;SDS011;7649;52.084;7.478;2023-03-24T05:53:03;3.17;;;1.90;;
15096;SDS011;7649;52.084;7.478;2023-03-24T05:55:32;3.73;;;1.60;;
15096;SDS011;7649;52.084;7.478;2023-03-24T05:58:01;1.40;;;1.30;;
15096;SDS011;7649;52.084;7.478;2023-03-24T06:00:29;3.67;;;1.83;;
15096;SDS011;7649;52.084;7.478;2023-03-24T06:02:58;2.50;;;1.63;;
15096;SDS011;7649;52.084;7.478;2023-03-24T06:05:30;3.47;;;1.60;;
15096;SDS011;7649;52.084;7.478;2023-03-24T06:07:58;2.17;;;1.77;;
15096;SDS011;7649;52.084;7.478;2023-03-24T06:10:26;3.57;;;1.87;;
15096;SDS011;7649;52.084;7.478;2023-03-24T06:12:56;4.77;;;2.10;;
15096;SDS011;7649;52.084;7.478;2023-03-24T06:15:24;2.53;;;1.80;;
15096;SDS011;7649;52.084;7.478;2023-03-24T06:17:53;5.20;;;2.40;;
15096;SDS011;7649;52.084;7.478;2023-03-24T06:20:22;6.10;;;2.40;;
15096;SDS011;7649;52.084;7.478;2023-03-24T06:22:51;5.27;;;2.47;;
15096;SDS011;7649;52.084;7.478;2023-03-24T06:25:24;5.60;;;2.47;;
15096;SDS011;7649;52.084;7.478;2023-03-24T06:27:54;10.50;;;2.50;;
15096;SDS011;7649;52.084;7.478;2023-03-24T06:30:30;10.37;;;3.10;;
15096;SDS011;7649;52.084;7.478;2023-03-24T06:32:59;6.07;;;2.60;;
15096;SDS011;7649;52.084;7.478;2023-03-24T06:35:27;8.77;;;2.60;;
15096;SDS011;7649;52.084;7.478;2023-03-24T06:37:55;7.43;;;2.17;;
15096;SDS011;7649;52.084;7.478;2023-03-24T06:40:24;8.03;;;3.03;;
15096;SDS011;7649;52.084;7.478;2023-03-24T06:42:52;9.37;;;2.83;;
15096;SDS011;7649;52.084;7.478;2023-03-24T06:45:21;9.10;;;2.70;;
15096;SDS011;7649;52.084;7.478;2023-03-24T06:47:51;11.10;;;3.27;;
15096;SDS011;7649;52.084;7.478;2023-03-24T06:50:21;8.83;;;2.90;;
15096;SDS011;7649;52.084;7.478;2023-03-24T06:52:52;8.20;;;3.10;;
15096;SDS011;7649;52.084;7.478;2023-03-24T06:55:20;9.77;;;3.10;;
15096;SDS011;7649;52.084;7.478;2023-03-24T06:57:48;8.13;;;3.00;;
15096;SDS011;7649;52.084;7.478;2023-03-24T07:00:17;9.07;;;3.40;;
15096;SDS011;7649;52.084;7.478;2023-03-24T07:02:46;8.87;;;3.50;;
15096;SDS011;7649;52.084;7.478;2023-03-24T07:05:18;8.23;;;3.40;;
15096;SDS011;7649;52.084;7.478;2023-03-24T07:07:47;8.57;;;3.43;;
15096;SDS011;7649;52.084;7.478;2023-03-24T07:10:18;10.33;;;3.63;;
15096;SDS011;7649;52.084;7.478;2023-03-24T07:12:47;9.20;;;4.70;;
15096;SDS011;7649;52.084;7.478;2023-03-24T07:15:15;12.30;;;4.07;;
15096;SDS011;7649;52.084;7.478;2023-03-24T07:17:43;8.87;;;3.47;;
15096;SDS011;7649;52.084;7.478;2023-03-24T07:20:12;11.97;;;3.40;;
15096;SDS011;7649;52.084;7.478;2023-03-24T07:22:42;8.70;;;3.23;;
15096;SDS011;7649;52.084;7.478;2023-03-24T07:25:10;9.37;;;3.60;;
15096;SDS011;7649;52.084;7.478;2023-03-24T07:27:39;10.70;;;3.67;;
15096;SDS011;7649;52.084;7.478;2023-03-24T07:30:08;8.97;;;3.33;;
15096;SDS011;7649;52.084;7.478;2023-03-24T07:32:36;11.10;;;3.93;;
15096;SDS011;7649;52.084;7.478;2023-03-24T07:35:05;9.77;;;3.77;;
15096;SDS011;7649;52.084;7.478;2023-03-24T07:37:35;6.30;;;3.47;;
15096;SDS011;7649;52.084;7.478;2023-03-24T07:40:06;7.77;;;3.47;;
15096;SDS011;7649;52.084;7.478;2023-03-24T07:42:37;10.43;;;3.37;;
15096;SDS011;7649;52.084;7.478;2023-03-24T07:45:07;10.53;;;4.13;;
15096;SDS011;7649;52.084;7.478;2023-03-24T07:47:36;11.40;;;4.03;;
15096;SDS011;7649;52.084;7.478;2023-03-24T07:50:05;7.47;;;3.47;;
15096;SDS011;7649;52.084;7.478;2023-03-24T07:52:35;10.67;;;3.60;;
15096;SDS011;7649;52.084;7.478;2023-03-24T07:55:03;10.73;;;4.13;;
15096;SDS011;7649;52.084;7.478;2023-03-24T07:57:37;12.07;;;4.23;;
15096;SDS011;7649;52.084;7.478;2023-03-24T08:00:08;9.80;;;3.73;;
15096;SDS011;7649;52.084;7.478;2023-03-24T08:02:40;9.17;;;4.33;;
15096;SDS011;7649;52.084;7.478;2023-03-24T08:05:09;8.83;;;4.07;;
15096;SDS011;7649;52.084;7.478;2023-03-24T08:07:39;10.30;;;3.67;;
15096;SDS011;7649;52.084;7.478;2023-03-24T08:10:09;6.43;;;3.37;;
15096;SDS011;7649;52.084;7.478;2023-03-24T08:12:39;11.00;;;3.90;;
15096;SDS011;7649;52.084;7.478;2023-03-24T08:15:07;8.67;;;4.20;;
15096;SDS011;7649;52.084;7.478;2023-03-24T08:17:36;11.10;;;3.87;;
15096;SDS011;7649;52.084;7.478;2023-03-24T08:20:04;7.47;;;3.43;;
15096;SDS011;7649;52.084;7.478;2023-03-24T08:22:37;5.17;;;2.87;;
15096;SDS011;7649;52.084;7.478;2023-03-24T08:25:05;9.27;;;3.27;;
15096;SDS011;7649;52.084;7.478;2023-03-24T08:27:36;7.63;;;3.37;;
15096;SDS011;7649;52.084;7.478;2023-03-24T08:30:07;11.47;;;3.60;;
15096;SDS011;7649;52.084;7.478;2023-03-24T08:32:36;7.60;;;2.67;;
15096;SDS011;7649;52.084;7.478;2023-03-24T08:35:04;7.43;;;3.00;;
15096;SDS011;7649;52.084;7.478;2023-03-24T08:37:33;9.07;;;4.97;;
15096;SDS011;7649;52.084;7.478;2023-03-24T08:40:02;8.40;;;2.80;;
15096;SDS011;7649;52.084;7.478;2023-03-24T08:42:31;6.47;;;3.10;;
15096;SDS011;7649;52.084;7.478;2023-03-24T08:45:00;8.70;;;3.10;;
15096;SDS011;7649;52.084;7.478;2023-03-24T08:47:29;7.63;;;3.00;;
15096;SDS011;7649;52.084;7.478;2023-03-24T08:49:58;7.70;;;2.63;;
15096;SDS011;7649;52.084;7.478;2023-03-24T08:52:26;5.43;;;2.97;;
15096;SDS011;7649;52.084;7.478;2023-03-24T08:54:54;8.37;;;3.00;;
15096;SDS011;7649;52.084;7.478;2023-03-24T08:57:23;11.03;;;3.03;;
15096;SDS011;7649;52.084;7.478;2023-03-24T08:59:51;7.73;;;3.10;;
15096;SDS011;7649;52.084;7.478;2023-03-24T09:02:20;6.53;;;2.70;;
15096;SDS011;7649;52.084;7.478;2023-03-24T09:04:49;8.30;;;3.10;;
15096;SDS011;7649;52.084;7.478;2023-03-24T09:07:19;5.63;;;3.17;;
15096;SDS011;7649;52.084;7.478;2023-03-24T09:09:48;7.30;;;2.83;;
15096;SDS011;7649;52.084;7.478;2023-03-24T09:12:16;7.07;;;2.93;;
15096;SDS011;7649;52.084;7.478;2023-03-24T09:14:46;7.53;;;2.60;;
15096;SDS011;7649;52.084;7.478;2023-03-24T09:17:15;7.13;;;2.73;;
15096;SDS011;7649;52.084;7.478;2023-03-24T09:19:43;8.80;;;2.77;;
15096;SDS011;7649;52.084;7.478;2023-03-24T09:22:13;6.77;;;2.73;;
15096;SDS011;7649;52.084;7.478;2023-03-24T09:24:42;8.50;;;2.50;;
15096;SDS011;7649;52.084;7.478;2023-03-24T09:27:10;9.17;;;2.97;;
15096;SDS011;7649;52.084;7.478;2023-03-24T09:29:38;8.97;;;3.03;;
15096;SDS011;7649;52.084;7.478;2023-03-24T09:32:07;11.93;;;3.47;;
15096;SDS011;7649;52.084;7.478;2023-03-24T09:34:35;7.90;;;2.80;;
15096;SDS011;7649;52.084;7.478;2023-03-24T09:37:04;10.13;;;3.23;;
15096;SDS011;7649;52.084;7.478;2023-03-24T09:39:35;9.87;;;3.37;;
15096;SDS011;7649;52.084;7.478;2023-03-24T09:42:03;7.40;;;2.67;;
15096;SDS011;7649;52.084;7.478;2023-03-24T09:44:33;7.63;;;3.03;;
15096;SDS011;7649;52.084;7.478;2023-03-24T09:47:04;7.50;;;2.77;;
15096;SDS011;7649;52.084;7.478;2023-03-24T09:49:33;10.40;;;2.60;;
15096;SDS011;7649;52.084;7.478;2023-03-24T09:52:04;11.60;;;3.40;;
15096;SDS011;7649;52.084;7.478;2023-03-24T09:54:37;15.83;;;3.07;;
15096;SDS011;7649;52.084;7.478;2023-03-24T09:57:08;10.17;;;3.33;;
15096;SDS011;7649;52.084;7.478;2023-03-24T09:59:42;9.67;;;2.73;;
15096;SDS011;7649;52.084;7.478;2023-03-24T10:02:10;7.43;;;2.80;;
15096;SDS011;7649;52.084;7.478;2023-03-24T10:04:39;6.13;;;2.47;;
15096;SDS011;7649;52.084;7.478;2023-03-24T10:07:08;6.70;;;2.97;;
15096;SDS011;7649;52.084;7.478;2023-03-24T10:09:41;9.50;;;2.87;;
15096;SDS011;7649;52.084;7.478;2023-03-24T10:12:15;8.10;;;2.90;;
15096;SDS011;7649;52.084;7.478;2023-03-24T10:14:51;11.70;;;2.93;;
15096;SDS011;7649;52.084;7.478;2023-03-24T10:17:24;10.50;;;6.50;;
15096;SDS011;7649;52.084;7.478;2023-03-24T10:19:57;9.53;;;2.37;;
15096;SDS011;7649;52.084;7.478;2023-03-24T10:22:29;7.13;;;2.40;;
15096;SDS011;7649;52.084;7.478;2023-03-24T10:25:00;11.13;;;3.43;;
15096;SDS011;7649;52.084;7.478;2023-03-24T10:27:31;8.97;;;2.77;;
15096;SDS011;7649;52.084;7.478;2023-03-24T10:30:02;32.10;;;21.87;;
15096;SDS011;7649;52.084;7.478;2023-03-24T10:32:32;6.57;;;2.60;;
15096;SDS011;7649;52.084;7.478;2023-03-24T10:35:01;8.97;;;2.53;;
15096;SDS011;7649;52.084;7.478;2023-03-24T10:37:35;6.63;;;2.50;;
15096;SDS011;7649;52.084;7.478;2023-03-24T10:40:11;8.17;;;2.40;;
15096;SDS011;7649;52.084;7.478;2023-03-24T10:42:43;8.53;;;3.00;;
15096;SDS011;7649;52.084;7.478;2023-03-24T10:45:15;8.73;;;2.87;;
15096;SDS011;7649;52.084;7.478;2023-03-24T10:47:47;7.63;;;3.07;;
15096;SDS011;7649;52.084;7.478;2023-03-24T10:50:15;7.07;;;2.43;;
15096;SDS011;7649;52.084;7.478;2023-03-24T10:52:45;8.63;;;2.60;;
15096;SDS011;7649;52.084;7.478;2023-03-24T10:55:18;8.67;;;2.43;;
15096;SDS011;7649;52.084;7.478;2023-03-24T10:57:49;6.63;;;2.57;;
15096;SDS011;7649;52.084;7.478;2023-03-24T11:00:19;6.80;;;2.30;;
15096;SDS011;7649;52.084;7.478;2023-03-24T11:02:53;9.27;;;2.60;;
15096;SDS011;7649;52.084;7.478;2023-03-24T11:05:25;8.77;;;2.93;;
15096;SDS011;7649;52.084;7.478;2023-03-24T11:07:57;6.97;;;2.40;;
15096;SDS011;7649;52.084;7.478;2023-03-24T11:10:27;8.40;;;2.60;;
15096;SDS011;7649;52.084;7.478;2023-03-24T11:12:59;9.60;;;2.30;;
15096;SDS011;7649;52.084;7.478;2023-03-24T11:15:30;7.33;;;2.73;;
15096;SDS011;7649;52.084;7.478;2023-03-24T11:18:00;6.37;;;2.63;;
15096;SDS011;7649;52.084;7.478;2023-03-24T11:20:34;6.13;;;2.20;;
15096;SDS011;7649;52.084;7.478;2023-03-24T11:23:05;7.60;;;2.50;;
15096;SDS011;7649;52.084;7.478;2023-03-24T11:25:36;7.83;;;2.70;;
15096;SDS011;7649;52.084;7.478;2023-03-24T11:28:06;5.87;;;2.40;;
15096;SDS011;7649;52.084;7.478;2023-03-24T11:30:42;5.77;;;2.63;;
15096;SDS011;7649;52.084;7.478;2023-03-24T11:33:13;6.93;;;2.30;;
15096;SDS011;7649;52.084;7.478;2023-03-24T11:35:45;7.87;;;2.90;;
15096;SDS011;7649;52.084;7.478;2023-03-24T11:38:28;5.83;;;2.43;;
15096;SDS011;7649;52.084;7.478;2023-03-24T11:40:59;6.47;;;2.60;;
15096;SDS011;7649;52.084;7.478;2023-03-24T11:43:30;7.10;;;2.80;;
15096;SDS011;7649;52.084;7.478;2023-03-24T11:45:59;16.70;;;11.07;;
15096;SDS011;7649;52.084;7.478;2023-03-24T11:48:29;8.13;;;2.70;;
15096;SDS011;7649;52.084;7.478;2023-03-24T11:50:58;9.67;;;2.57;;
15096;SDS011;7649;52.084;7.478;2023-03-24T11:53:28;7.40;;;2.60;;
15096;SDS011;7649;52.084;7.478;2023-03-24T11:56:00;5.20;;;2.40;;
15096;SDS011;7649;52.084;7.478;2023-03-24T11:58:31;8.73;;;2.60;;
15096;SDS011;7649;52.084;7.478;2023-03-24T12:01:03;6.33;;;2.73;;
15096;SDS011;7649;52.084;7.478;2023-03-24T12:09:12;6.90;;;2.77;;
15096;SDS011;7649;52.084;7.478;2023-03-24T12:11:48;9.17;;;3.00;;
15096;SDS011;7649;52.084;7.478;2023-03-24T12:14:21;6.83;;;2.80;;
15096;SDS011;7649;52.084;7.478;2023-03-24T12:16:50;8.63;;;3.03;;
15096;SDS011;7649;52.084;7.478;2023-03-24T12:19:33;4.87;;;2.10;;
15096;SDS011;7649;52.084;7.478;2023-03-24T12:22:05;8.37;;;2.83;;
15096;SDS011;7649;52.084;7.478;2023-03-24T12:24:41;7.97;;;2.70;;
15096;SDS011;7649;52.084;7.478;2023-03-24T12:27:17;8.93;;;2.80;;
15096;SDS011;7649;52.084;7.478;2023-03-24T12:29:52;4.93;;;2.33;;
15096;SDS011;7649;52.084;7.478;2023-03-24T12:32:24;7.47;;;2.30;;
15096;SDS011;7649;52.084;7.478;2023-03-24T12:35:06;6.40;;;2.30;;
15096;SDS011;7649;52.084;7.478;2023-03-24T12:37:41;7.00;;;2.60;;
15096;SDS011;7649;52.084;7.478;2023-03-24T12:40:22;10.90;;;2.70;;
15096;SDS011;7649;52.084;7.478;2023-03-24T12:42:56;4.47;;;2.13;;
15096;SDS011;7649;52.084;7.478;2023-03-24T12:45:29;6.40;;;2.50;;
15096;SDS011;7649;52.084;7.478;2023-03-24T12:48:16;6.17;;;2.13;;
15096;SDS011;7649;52.084;7.478;2023-03-24T12:50:52;4.93;;;2.40;;
15096;SDS011;7649;52.084;7.478;2023-03-24T12:53:26;9.33;;;2.60;;
15096;SDS011;7649;52.084;7.478;2023-03-24T12:55:57;8.97;;;2.50;;
15096;SDS011;7649;52.084;7.478;2023-03-24T12:58:30;8.27;;;2.93;;
15096;SDS011;7649;52.084;7.478;2023-03-24T13:01:04;6.83;;;2.60;;
15096;SDS011;7649;52.084;7.478;2023-03-24T13:03:34;6.13;;;2.80;;
15096;SDS011;7649;52.084;7.478;2023-03-24T13:06:10;5.93;;;2.60;;
15096;SDS011;7649;52.084;7.478;2023-03-24T13:08:44;5.33;;;2.40;;
15096;SDS011;7649;52.084;7.478;2023-03-24T13:11:15;6.23;;;2.67;;
15096;SDS011;7649;52.084;7.478;2023-03-24T13:13:59;8.40;;;2.40;;
15096;SDS011;7649;52.084;7.478;2023-03-24T13:16:29;4.67;;;2.10;;
15096;SDS011;7649;52.084;7.478;2023-03-24T13:18:58;6.40;;;2.50;;
15096;SDS011;7649;52.084;7.478;2023-03-24T13:21:28;5.70;;;2.60;;
15096;SDS011;7649;52.084;7.478;2023-03-24T13:24:01;6.87;;;3.20;;
15096;SDS011;7649;52.084;7.478;2023-03-24T13:26:36;6.30;;;2.67;;
15096;SDS011;7649;52.084;7.478;2023-03-24T13:29:18;7.37;;;3.20;;
15096;SDS011;7649;52.084;7.478;2023-03-24T13:31:50;6.27;;;2.60;;
15096;SDS011;7649;52.084;7.478;2023-03-24T13:34:22;6.13;;;3.33;;
15096;SDS011;7649;52.084;7.478;2023-03-24T13:36:51;8.73;;;3.33;;
15096;SDS011;7649;52.084;7.478;2023-03-24T13:39:22;4.50;;;2.60;;
15096;SDS011;7649;52.084;7.478;2023-03-24T13:41:53;7.07;;;3.17;;
15096;SDS011;7649;52.084;7.478;2023-03-24T13:44:23;5.53;;;2.73;;
15096;SDS011;7649;52.084;7.478;2023-03-24T13:46:59;7.23;;;2.90;;
15096;SDS011;7649;52.084;7.478;2023-03-24T13:49:29;8.47;;;3.43;;
15096;SDS011;7649;52.084;7.478;2023-03-24T13:52:01;9.57;;;3.20;;
15096;SDS011;7649;52.084;7.478;2023-03-24T13:54:36;6.00;;;2.53;;
15096;SDS011;7649;52.084;7.478;2023-03-24T13:57:04;5.97;;;2.80;;
15096;SDS011;7649;52.084;7.478;2023-03-24T13:59:40;4.77;;;2.27;;
15096;SDS011;7649;52.084;7.478;2023-03-24T14:02:20;3.77;;;1.97;;
15096;SDS011;7649;52.084;7.478;2023-03-24T14:04:50;3.70;;;1.47;;
15096;SDS011;7649;52.084;7.478;2023-03-24T14:07:30;4.50;;;1.60;;
15096;SDS011;7649;52.084;7.478;2023-03-24T14:09:59;2.63;;;1.30;;
15096;SDS011;7649;52.084;7.478;2023-03-24T14:12:29;3.13;;;1.57;;
15096;SDS011;7649;52.084;7.478;2023-03-24T14:15:20;4.17;;;1.40;;
15096;SDS011;7649;52.084;7.478;2023-03-24T14:17:49;2.43;;;1.30;;
15096;SDS011;7649;52.084;7.478;2023-03-24T14:20:28;5.93;;;2.13;;
15096;SDS011;7649;52.084;7.478;2023-03-24T14:22:59;1.87;;;1.33;;
15096;SDS011;7649;52.084;7.478;2023-03-24T14:25:29;2.17;;;1.60;;
15096;SDS011;7649;52.084;7.478;2023-03-24T14:30:56;2.70;;;1.60;;
15096;SDS011;7649;52.084;7.478;2023-03-24T14:33:27;6.33;;;2.30;;
15096;SDS011;7649;52.084;7.478;2023-03-24T14:35:56;4.03;;;2.17;;
15096;SDS011;7649;52.084;7.478;2023-03-24T14:38:26;5.83;;;2.70;;
15096;SDS011;7649;52.084;7.478;2023-03-24T14:40:55;2.87;;;1.97;;
15096;SDS011;7649;52.084;7.478;2023-03-24T14:43:25;4.40;;;1.80;;
15096;SDS011;7649;52.084;7.478;2023-03-24T14:45:56;2.60;;;1.60;;
15096;SDS011;7649;52.084;7.478;2023-03-24T14:48:32;3.90;;;2.00;;
15096;SDS011;7649;52.084;7.478;2023-03-24T14:51:05;2.03;;;1.47;;
15096;SDS011;7649;52.084;7.478;2023-03-24T14:53:34;3.67;;;1.70;;
15096;SDS011;7649;52.084;7.478;2023-03-24T14:56:05;1.67;;;1.50;;
15096;SDS011;7649;52.084;7.478;2023-03-24T14:58:34;2.60;;;1.50;;
15096;SDS011;7649;52.084;7.478;2023-03-24T15:01:05;2.40;;;1.50;;
15096;SDS011;7649;52.084;7.478;2023-03-24T15:03:38;4.00;;;1.70;;
15096;SDS011;7649;52.084;7.478;2023-03-24T15:06:11;2.50;;;1.80;;
15096;SDS011;7649;52.084;7.478;2023-03-24T15:08:43;2.00;;;1.50;;
15096;SDS011;7649;52.084;7.478;2023-03-24T15:11:12;2.97;;;1.87;;
15096;SDS011;7649;52.084;7.478;2023-03-24T15:13:41;3.63;;;1.63;;
15096;SDS011;7649;52.084;7.478;2023-03-24T15:16:19;3.17;;;1.53;;
15096;SDS011;7649;52.084;7.478;2023-03-24T15:18:49;3.33;;;1.60;;
15096;SDS011;7649;52.084;7.478;2023-03-24T15:21:22;3.10;;;1.77;;
15096;SDS011;7649;52.084;7.478;2023-03-24T15:23:50;2.07;;;1.37;;
15096;SDS011;7649;52.084;7.478;2023-03-24T15:26:19;3.77;;;1.50;;
15096;SDS011;7649;52.084;7.478;2023-03-24T15:28:55;2.73;;;1.10;;
15096;SDS011;7649;52.084;7.478;2023-03-24T15:31:25;3.33;;;1.53;;
15096;SDS011;7649;52.084;7.478;2023-03-24T15:34:02;2.67;;;1.30;;
15096;SDS011;7649;52.084;7.478;2023-03-24T15:36:37;1.83;;;0.90;;
15096;SDS011;7649;52.084;7.478;2023-03-24T15:39:17;3.30;;;1.10;;
15096;SDS011;7649;52.084;7.478;2023-03-24T15:41:46;2.87;;;0.93;;